Time;durP1;ratioP1;P1;durP2;ratioP2;P2;SDS_P1;SDS_P2;PMS_P1;PMS_P2;Temp;Humidity;BMP_temperature;BMP_pressure;BME280_temperature;BME280_humidity;BME280_pressure;Samples;Min_cycle;Max_cycle;Signal;HPM_P1;HPM_P2
2022/12/13 00:00:30;;;;;;;17.00;10.40;;;;;;;-1.67;85.41;99058.45;101357;1291;111173;-70
2022/12/13 00:03:13;;;;;;;16.00;10.60;;;;;;;-1.63;85.45;99058.42;99837;1294;138440;-70
2022/12/13 00:05:43;;;;;;;16.30;10.10;;;;;;;-1.62;85.42;99056.23;99951;1295;98270;-69
2022/12/13 00:08:07;;;;;;;15.10;9.30;;;;;;;-1.60;85.18;99057.26;99751;1294;137608;-70
2022/12/13 00:10:31;;;;;;;17.90;10.40;;;;;;;-1.59;85.11;99061.67;99811;1300;97846;-69
2022/12/13 00:12:54;;;;;;;16.90;9.70;;;;;;;-1.60;84.88;99057.94;99897;1293;111150;-69
2022/12/13 00:15:18;;;;;;;15.20;10.50;;;;;;;-1.63;84.76;99064.39;99773;1292;137321;-69
2022/12/13 00:17:41;;;;;;;19.00;11.10;;;;;;;-1.68;84.72;99061.34;99825;1293;97863;-68
2022/12/13 00:20:06;;;;;;;15.30;10.40;;;;;;;-1.73;84.72;99064.27;99697;1282;137541;-69
2022/12/13 00:22:30;;;;;;;16.10;10.10;;;;;;;-1.76;84.71;99062.40;99860;1297;97828;-69
2022/12/13 00:24:55;;;;;;;14.90;9.50;;;;;;;-1.78;84.97;99070.23;99836;1291;111140;-70
2022/12/13 00:27:18;;;;;;;14.60;9.20;;;;;;;-1.78;84.76;99074.16;100674;1294;138671;-70
2022/12/13 00:29:43;;;;;;;14.20;8.90;;;;;;;-1.78;85.06;99076.03;99937;1294;97708;-70
2022/12/13 00:32:06;;;;;;;14.40;9.20;;;;;;;-1.75;85.01;99076.87;99732;1293;138136;-69
2022/12/13 00:34:30;;;;;;;12.40;8.40;;;;;;;-1.71;85.28;99079.08;99898;1294;97819;-69
2022/12/13 00:36:54;;;;;;;16.00;10.00;;;;;;;-1.70;84.98;99076.52;99853;1291;110957;-69
2022/12/13 00:39:18;;;;;;;12.60;8.70;;;;;;;-1.71;85.06;99078.56;99747;1291;137579;-69
2022/12/13 00:41:43;;;;;;;12.20;8.40;;;;;;;-1.70;85.00;99086.05;100063;1299;97875;-70
2022/12/13 00:44:07;;;;;;;14.70;9.50;;;;;;;-1.69;85.04;99087.77;99799;1290;137799;-70
2022/12/13 00:46:31;;;;;;;16.20;9.80;;;;;;;-1.69;85.23;99091.52;99779;1292;97857;-69
2022/12/13 00:48:57;;;;;;;15.10;9.90;;;;;;;-1.70;85.12;99094.75;99935;1293;111136;-70
2022/12/13 00:51:21;;;;;;;16.50;10.20;;;;;;;-1.70;85.10;99088.79;99765;1293;138115;-69
2022/12/13 00:53:45;;;;;;;12.70;9.00;;;;;;;-1.71;85.06;99088.27;99938;1294;97822;-70
2022/12/13 00:56:12;;;;;;;14.80;8.40;;;;;;;-1.70;84.99;99083.84;99779;1291;138434;-70
2022/12/13 00:58:36;;;;;;;15.90;8.70;;;;;;;-1.67;85.00;99088.27;100154;1299;97907;-70
2022/12/13 01:01:08;;;;;;;13.50;8.60;;;;;;;-1.63;84.94;99087.91;99857;1296;110502;-69
2022/12/13 01:03:32;;;;;;;13.30;8.70;;;;;;;-1.60;84.65;99095.77;99706;1294;138234;-69
2022/12/13 01:05:55;;;;;;;14.00;9.40;;;;;;;-1.59;84.60;99101.73;99172;1291;1002966;-69
2022/12/13 01:08:39;;;;;;;13.40;8.60;;;;;;;-1.57;84.40;99100.70;99718;1294;138270;-70
2022/12/13 01:11:03;;;;;;;14.30;9.30;;;;;;;-1.57;84.47;99099.85;99878;1293;97855;-70
2022/12/13 01:13:27;;;;;;;15.20;8.70;;;;;;;-1.58;84.25;99103.77;100667;1291;111393;-70
2022/12/13 01:15:51;;;;;;;14.10;9.20;;;;;;;-1.59;84.25;99109.23;99666;1295;137654;-70
2022/12/13 01:18:17;;;;;;;14.70;9.70;;;;;;;-1.62;84.16;99111.09;99927;1293;97740;-70
2022/12/13 01:20:40;;;;;;;16.20;9.70;;;;;;;-1.63;84.09;99107.34;99689;1299;138297;-70
2022/12/13 01:23:05;;;;;;;14.30;9.00;;;;;;;-1.66;84.11;99108.02;99835;1299;98341;-70
2022/12/13 01:25:28;;;;;;;13.40;8.60;;;;;;;-1.68;84.06;99112.13;99805;1291;111906;-70
2022/12/13 01:27:52;;;;;;;12.80;8.60;;;;;;;-1.67;84.20;99113.48;99635;1292;138708;-70
2022/12/13 01:30:15;;;;;;;10.90;7.70;;;;;;;-1.65;84.18;99109.39;99808;1301;98360;-70
2022/12/13 01:32:39;;;;;;;14.30;8.80;;;;;;;-1.63;84.05;99113.30;99695;1299;137890;-69
2022/12/13 01:35:02;;;;;;;15.00;9.00;;;;;;;-1.62;83.97;99114.66;99835;1295;97818;-70
2022/12/13 01:37:26;;;;;;;13.50;8.90;;;;;;;-1.63;84.10;99117.05;99796;1292;110443;-70
2022/12/13 01:39:50;;;;;;;13.80;9.70;;;;;;;-1.62;84.12;99121.65;99715;1299;137568;-70
2022/12/13 01:42:14;;;;;;;12.90;9.60;;;;;;;-1.65;83.81;99122.69;99901;1291;100343;-70
2022/12/13 01:45:20;;;;;;;14.80;9.60;;;;;;;-1.68;83.73;99123.38;99805;1292;138100;-70
2022/12/13 01:47:47;;;;;;;17.00;9.80;;;;;;;-1.74;83.68;99121.67;99423;1307;97866;-69
2022/12/13 01:50:16;;;;;;;14.30;9.50;;;;;;;-1.78;83.64;99121.35;99359;1307;138323;-69
2022/12/13 01:52:41;;;;;;;16.90;10.10;;;;;;;-1.80;83.62;99123.20;99412;1301;108309;-68
2022/12/13 01:55:08;;;;;;;15.90;9.60;;;;;;;-1.83;83.55;99130.19;99420;1303;97843;-68
2022/12/13 01:57:33;;;;;;;11.80;8.30;;;;;;;-1.80;83.59;99128.84;99385;1299;138036;-69
2022/12/13 01:59:57;;;;;;;12.50;9.30;;;;;;;-1.79;83.38;99130.38;99479;1307;97824;-69
2022/12/13 02:02:22;;;;;;;14.30;9.50;;;;;;;-1.78;83.56;99128.85;99390;1307;139395;-69
2022/12/13 02:04:53;;;;;;;15.20;10.00;;;;;;;-1.78;83.56;99125.45;99413;1299;107696;-69
2022/12/13 02:07:21;;;;;;;14.40;9.60;;;;;;;-1.80;83.64;99129.19;99474;1299;98559;-69
2022/12/13 02:09:47;;;;;;;15.90;10.20;;;;;;;-1.83;83.51;99129.52;99799;1299;137531;-69
2022/12/13 02:12:20;;;;;;;16.60;9.80;;;;;;;-1.85;83.66;99131.22;99476;1306;98199;-69
2022/12/13 02:14:44;;;;;;;15.20;10.40;;;;;;;-1.87;83.61;99129.70;99368;1299;137399;-69
2022/12/13 02:17:18;;;;;;;17.50;10.00;;;;;;;-1.89;83.79;99130.71;99412;1293;107827;-69
2022/12/13 02:20:19;;;;;;;14.60;9.30;;;;;;;-1.91;83.70;99125.44;99522;1307;97833;-69
2022/12/13 02:23:06;;;;;;;15.80;9.30;;;;;;;-1.91;83.97;99125.77;99767;1291;107728;-69
2022/12/13 02:26:02;;;;;;;14.30;9.50;;;;;;;-1.89;84.13;99124.76;100275;1295;98042;-69
2022/12/13 02:28:42;;;;;;;12.60;8.70;;;;;;;-1.85;84.30;99128.33;99839;1292;138234;-69
2022/12/13 02:31:11;;;;;;;13.70;8.50;;;;;;;-1.85;84.35;99122.88;99866;1294;107518;-69
2022/12/13 02:33:49;;;;;;;15.80;8.80;;;;;;;-1.82;84.43;99123.54;99852;1292;138511;-69
2022/12/13 02:36:18;;;;;;;15.30;9.30;;;;;;;-1.78;84.62;99124.59;99931;1298;107091;-69
2022/12/13 02:38:51;;;;;;;12.70;8.80;;;;;;;-1.75;84.39;99126.46;99822;1284;138402;-69
2022/12/13 02:41:21;;;;;;;13.60;8.70;;;;;;;-1.71;84.47;99127.82;99904;1292;109394;-69
2022/12/13 02:43:52;;;;;;;13.70;8.70;;;;;;;-1.68;84.34;99128.15;99954;1292;106618;-68
2022/12/13 02:46:29;;;;;;;11.20;8.30;;;;;;;-1.63;84.40;99129.84;99857;1294;138858;-69
2022/12/13 02:48:56;;;;;;;12.20;8.80;;;;;;;-1.59;84.22;99131.56;99954;1291;107654;-69
2022/12/13 02:51:21;;;;;;;13.20;9.10;;;;;;;-1.54;84.03;99137.51;99842;1291;137474;-69
2022/12/13 02:53:45;;;;;;;10.90;6.40;;;;;;;-1.50;84.20;99136.99;99922;1293;110139;-69
2022/12/13 02:56:09;;;;;;;15.90;9.90;;;;;;;-1.49;84.08;99137.50;99729;1294;137592;-69
2022/12/13 02:58:35;;;;;;;14.40;9.40;;;;;;;-1.50;83.83;99142.95;99984;1294;97808;-69
2022/12/13 03:01:07;;;;;;;;;;;;;;;-1.50;83.84;99144.83;99912;1291;108573;-69
2022/12/13 03:04:01;;;;;;;15.70;10.70;;;;;;;-1.54;83.78;99143.64;99897;1294;124834;-70
2022/12/13 03:06:34;;;;;;;16.00;10.00;;;;;;;-1.56;83.76;99146.05;99906;1291;110720;-69
2022/12/13 03:09:10;;;;;;;13.60;9.90;;;;;;;-1.57;83.73;99147.75;100054;1288;138292;-69
2022/12/13 03:14:25;;;;;;;15.70;10.70;;;;;;;-1.56;83.54;99151.32;99907;1291;138728;-70
2022/12/13 03:16:55;;;;;;;13.50;9.90;;;;;;;-1.56;83.89;99149.96;100445;1299;97814;-69
2022/12/13 03:19:19;;;;;;;17.10;10.50;;;;;;;-1.55;83.99;99150.64;99906;1292;110072;-69
2022/12/13 03:21:45;;;;;;;14.80;9.50;;;;;;;-1.52;84.00;99150.11;99106;1292;1002704;-69
2022/12/13 03:24:12;;;;;;;14.80;9.00;;;;;;;-1.48;83.83;99150.11;99816;1292;97840;-69
2022/12/13 03:26:37;;;;;;;14.10;9.40;;;;;;;-1.43;83.81;99145.35;99825;1297;138220;-69
2022/12/13 03:29:01;;;;;;;15.70;8.90;;;;;;;-1.38;83.73;99142.27;99907;1292;97842;-69
2022/12/13 03:31:25;;;;;;;12.90;8.60;;;;;;;-1.35;83.60;99142.93;99918;1293;112414;-70
2022/12/13 03:33:48;;;;;;;17.70;9.90;;;;;;;-1.34;83.58;99146.52;99841;1298;137453;-70
2022/12/13 03:36:13;;;;;;;13.80;9.60;;;;;;;-1.32;83.38;99144.96;99897;1297;97869;-70
2022/12/13 03:38:38;;;;;;;15.80;10.00;;;;;;;-1.30;83.36;99148.20;99850;1293;137515;-70
2022/12/13 03:41:05;;;;;;;15.80;10.90;;;;;;;-1.31;83.37;99145.64;99920;1300;98452;-70
2022/12/13 03:43:29;;;;;;;15.50;11.40;;;;;;;-1.31;83.36;99140.87;99910;1287;109703;-69
2022/12/13 03:45:53;;;;;;;19.20;12.40;;;;;;;-1.30;83.40;99146.34;99760;1292;137720;-70
2022/12/13 03:48:17;;;;;;;21.70;12.90;;;;;;;-1.33;83.29;99144.97;99913;1292;99563;-70
2022/12/13 03:50:47;;;;;;;18.40;12.60;;;;;;;-1.34;83.41;99149.07;99784;1287;138905;-68
2022/12/13 03:53:10;;;;;;;17.50;12.90;;;;;;;-1.35;83.42;99148.05;99934;1293;98027;-68
2022/12/13 03:55:54;;;;;;;17.10;12.00;;;;;;;-1.35;83.41;99148.73;99891;1295;111050;-69
2022/12/13 03:58:17;;;;;;;19.30;12.60;;;;;;;-1.37;83.64;99153.17;99725;1292;139512;-68
2022/12/13 04:00:41;;;;;;;21.00;13.40;;;;;;;-1.39;83.65;99154.71;99874;1294;97843;-68
2022/12/13 04:03:04;;;;;;;18.70;13.00;;;;;;;-1.38;83.70;99156.76;99784;1292;138453;-68
2022/12/13 04:05:29;;;;;;;17.60;12.70;;;;;;;-1.37;83.99;99154.70;99819;1285;97824;-68
2022/12/13 04:07:53;;;;;;;20.40;12.70;;;;;;;-1.33;83.88;99152.13;99885;1292;111804;-68
2022/12/13 04:10:24;;;;;;;17.30;12.10;;;;;;;-1.30;83.79;99155.54;99822;1292;138463;-68
2022/12/13 04:15:31;;;;;;;16.80;12.30;;;;;;;-1.24;83.73;99159.30;99846;1294;137739;-68
2022/12/13 04:17:55;;;;;;;19.40;13.50;;;;;;;-1.21;83.66;99161.16;99975;1278;97825;-69
2022/12/13 04:20:18;;;;;;;20.20;13.30;;;;;;;-1.18;83.70;99162.86;99787;1294;137918;-68
2022/12/13 04:22:42;;;;;;;21.80;14.10;;;;;;;-1.20;83.47;99159.11;99933;1292;106862;-68
2022/12/13 04:25:06;;;;;;;18.60;13.60;;;;;;;-1.23;83.47;99166.11;99983;1292;97850;-68
2022/12/13 04:27:30;;;;;;;21.10;13.40;;;;;;;-1.25;83.35;99168.85;99845;1292;137594;-68
2022/12/13 04:29:53;;;;;;;22.70;14.70;;;;;;;-1.28;83.56;99170.02;99945;1293;97915;-68
2022/12/13 04:32:18;;;;;;;22.40;14.10;;;;;;;-1.31;83.46;99170.88;99879;1297;138802;-68
2022/12/13 04:34:50;;;;;;;20.70;14.10;;;;;;;-1.33;83.54;99170.55;99918;1299;106406;-68
2022/12/13 04:37:13;;;;;;;20.80;14.40;;;;;;;-1.36;83.50;99168.34;99875;1293;97821;-68
2022/12/13 04:39:37;;;;;;;24.30;15.80;;;;;;;-1.38;83.61;99170.91;99816;1298;138441;-67
2022/12/13 04:42:01;;;;;;;22.80;14.80;;;;;;;-1.39;83.59;99169.89;99921;1297;97830;-68
2022/12/13 04:44:27;;;;;;;21.30;14.60;;;;;;;-1.39;83.68;99172.78;100059;1288;138231;-67
2022/12/13 04:46:57;;;;;;;18.90;13.90;;;;;;;-1.41;83.62;99175.69;100149;1298;106983;-67
2022/12/13 04:49:24;;;;;;;21.30;15.20;;;;;;;-1.42;83.54;99177.40;100050;1292;97744;-69
2022/12/13 04:51:48;;;;;;;22.50;14.50;;;;;;;-1.43;83.62;99181.14;99840;1294;138284;-68
2022/12/13 04:54:11;;;;;;;24.40;15.30;;;;;;;-1.45;83.66;99186.23;99927;1294;97874;-67
2022/12/13 04:56:47;;;;;;;22.60;14.80;;;;;;;-1.46;83.47;99186.76;99822;1293;138248;-68
2022/12/13 04:59:11;;;;;;;20.30;14.50;;;;;;;-1.49;83.65;99190.34;99875;1294;107877;-67
2022/12/13 05:01:35;;;;;;;23.80;16.60;;;;;;;-1.49;83.80;99190.85;99946;1291;98054;-67
2022/12/13 05:04:01;;;;;;;23.70;15.50;;;;;;;-1.50;83.79;99187.27;99779;1294;138009;-68
2022/12/13 05:06:24;;;;;;;22.50;15.20;;;;;;;-1.54;83.55;99189.50;99921;1294;97887;-67
2022/12/13 05:08:49;;;;;;;;;;;;;;;-1.60;83.37;99184.73;99824;1284;139238;-69
2022/12/13 05:11:14;;;;;;;23.70;15.30;;;;;;;-1.66;83.33;99187.96;99942;1289;107544;-68
2022/12/13 05:13:38;;;;;;;24.20;14.30;;;;;;;-1.70;83.41;99196.83;99912;1292;98762;-68
2022/12/13 05:16:05;;;;;;;21.30;13.30;;;;;;;-1.73;83.26;99193.27;99867;1301;138223;-68
2022/12/13 05:18:30;;;;;;;20.40;12.90;;;;;;;-1.73;83.19;99191.21;100010;1298;98238;-68
2022/12/13 05:20:54;;;;;;;21.20;14.70;;;;;;;-1.74;83.21;99193.43;99784;1293;139247;-67
2022/12/13 05:23:19;;;;;;;20.70;12.80;;;;;;;-1.73;83.23;99195.48;99860;1294;107846;-67
2022/12/13 05:25:46;;;;;;;19.50;13.10;;;;;;;-1.70;83.36;99202.12;99969;1284;97826;-68
2022/12/13 05:28:12;;;;;;;21.40;13.50;;;;;;;-1.68;83.40;99201.95;99823;1292;137796;-67
2022/12/13 05:30:52;;;;;;;20.80;13.60;;;;;;;-1.65;83.47;99205.52;100107;1297;97906;-67
2022/12/13 05:33:17;;;;;;;20.50;13.90;;;;;;;-1.67;83.32;99209.09;99796;1292;138218;-68
2022/12/13 05:35:42;;;;;;;22.20;13.70;;;;;;;-1.69;83.24;99215.75;99867;1300;109501;-67
2022/12/13 05:38:05;;;;;;;21.90;13.80;;;;;;;-1.73;83.43;99211.31;99938;1292;97740;-67
2022/12/13 05:40:31;;;;;;;18.90;13.40;;;;;;;-1.73;83.09;99217.63;100128;1298;107795;-68
2022/12/13 05:42:54;;;;;;;20.40;13.70;;;;;;;-1.75;83.19;99216.27;99970;1287;97826;-68
2022/12/13 05:45:25;;;;;;;18.40;12.10;;;;;;;-1.75;83.15;99218.31;99847;1293;138209;-67
2022/12/13 05:47:49;;;;;;;18.60;13.10;;;;;;;-1.76;83.09;99219.16;99856;1294;106817;-68
2022/12/13 05:50:14;;;;;;;17.70;12.40;;;;;;;-1.75;83.24;99228.02;99750;1293;138570;-68
2022/12/13 05:52:37;;;;;;;17.90;12.50;;;;;;;-1.75;83.09;99234.49;99825;1295;110131;-67
2022/12/13 05:55:01;;;;;;;19.90;12.90;;;;;;;-1.77;83.04;99234.33;99896;1295;96433;-68
2022/12/13 05:57:25;;;;;;;20.00;13.20;;;;;;;-1.75;82.93;99240.80;99911;1292;138456;-68
2022/12/13 05:59:48;;;;;;;20.30;12.40;;;;;;;-1.74;83.13;99242.68;99904;1292;107075;-68
2022/12/13 06:02:12;;;;;;;19.80;12.80;;;;;;;-1.72;82.92;99239.95;99847;1298;138517;-69
2022/12/13 06:04:44;;;;;;;17.00;11.10;;;;;;;-1.72;82.54;99243.36;99954;1293;107981;-68
2022/12/13 06:07:08;;;;;;;19.90;11.00;;;;;;;-1.73;82.44;99244.55;99818;1293;97883;-68
2022/12/13 06:09:32;;;;;;;16.20;10.90;;;;;;;-1.75;82.04;99247.96;99832;1287;137493;-68
2022/12/13 06:12:03;;;;;;;17.50;11.40;;;;;;;-1.80;81.72;99251.18;99895;1301;107444;-68
2022/12/13 06:14:35;;;;;;;14.40;9.90;;;;;;;-1.87;82.01;99257.64;99894;1294;138576;-68
2022/12/13 06:16:59;;;;;;;16.30;10.40;;;;;;;-1.92;81.76;99260.88;99977;1294;106859;-68
2022/12/13 06:19:24;;;;;;;14.60;10.40;;;;;;;-1.98;81.81;99260.01;99978;1284;97778;-67
2022/12/13 06:21:47;;;;;;;16.70;11.20;;;;;;;-2.02;81.80;99264.92;99849;1294;140361;-67
2022/12/13 06:24:11;;;;;;;16.70;10.50;;;;;;;-2.06;81.71;99264.59;99897;1291;106836;-68
2022/12/13 06:26:34;;;;;;;16.90;10.40;;;;;;;-2.10;81.49;99271.23;99874;1294;138664;-68
2022/12/13 06:28:58;;;;;;;17.30;10.80;;;;;;;-2.14;81.71;99272.40;99966;1292;109323;-68
2022/12/13 06:31:21;;;;;;;13.80;10.00;;;;;;;-2.14;81.73;99277.34;99890;1299;97823;-67
2022/12/13 06:33:45;;;;;;;13.40;9.90;;;;;;;-2.15;81.81;99279.21;99849;1293;139075;-68
2022/12/13 06:36:10;;;;;;;16.60;10.50;;;;;;;-2.18;81.54;99286.84;99796;1294;106600;-67
2022/12/13 06:38:33;;;;;;;16.20;10.70;;;;;;;-2.21;81.38;99285.98;99951;1292;139272;-68
2022/12/13 06:41:08;;;;;;;17.10;10.90;;;;;;;-2.19;81.67;99287.18;99894;1293;107234;-67
2022/12/13 06:43:32;;;;;;;15.40;10.10;;;;;;;-2.19;81.37;99286.67;100446;1294;96642;-67
2022/12/13 06:45:55;;;;;;;13.00;9.70;;;;;;;-2.17;81.39;99295.54;99835;1292;138062;-70
2022/12/13 06:48:19;;;;;;;16.20;11.40;;;;;;;-2.16;81.41;99303.04;99913;1297;107105;-69
2022/12/13 06:50:43;;;;;;;13.70;9.90;;;;;;;-2.16;81.30;99305.59;99859;1291;139320;-69
2022/12/13 06:53:07;;;;;;;14.80;10.20;;;;;;;-2.17;81.18;99301.15;99923;1293;108066;-70
2022/12/13 06:55:30;;;;;;;13.90;9.80;;;;;;;-2.18;81.18;99310.01;99989;1293;99838;-69
2022/12/13 06:57:56;;;;;;;14.60;9.90;;;;;;;-2.20;81.26;99313.06;99840;1293;137421;-69
2022/12/13 07:00:19;;;;;;;15.10;9.90;;;;;;;-2.22;80.87;99317.66;99910;1305;106705;-69
2022/12/13 07:02:52;;;;;;;13.60;10.00;;;;;;;-2.27;81.01;99322.92;99856;1294;137607;-69
2022/12/13 07:05:17;;;;;;;14.90;9.30;;;;;;;-2.30;80.56;99324.10;99880;1294;107454;-68
2022/12/13 07:07:40;;;;;;;12.80;9.00;;;;;;;-2.33;80.86;99328.17;99988;1292;97841;-68
2022/12/13 07:10:05;;;;;;;14.20;9.00;;;;;;;-2.34;80.69;99327.13;99822;1293;139039;-68
2022/12/13 07:12:35;;;;;;;13.60;9.40;;;;;;;-2.36;80.36;99326.44;100011;1294;106864;-69
2022/12/13 07:14:59;;;;;;;13.80;9.20;;;;;;;-2.36;80.61;99332.05;99827;1299;138510;-69
2022/12/13 07:17:23;;;;;;;14.20;10.00;;;;;;;-2.36;80.45;99337.34;99965;1301;107033;-69
2022/12/13 07:19:57;;;;;;;12.80;9.00;;;;;;;-2.35;80.42;99337.17;100153;1284;97960;-67
2022/12/13 07:22:24;;;;;;;18.10;9.30;;;;;;;-2.34;80.66;99340.23;99848;1291;138092;-68
2022/12/13 07:24:47;;;;;;;13.90;9.80;;;;;;;-2.33;80.55;99341.11;99809;1300;107464;-67
2022/12/13 07:27:11;;;;;;;13.60;8.90;;;;;;;-2.34;80.26;99347.23;99892;1294;137348;-68
2022/12/13 07:29:35;;;;;;;12.80;9.20;;;;;;;-2.35;80.14;99348.23;99881;1299;107756;-68
2022/12/13 07:31:58;;;;;;;13.20;8.50;;;;;;;-2.37;80.11;99349.08;99990;1297;98292;-68
2022/12/13 07:34:25;;;;;;;13.60;9.10;;;;;;;-2.42;80.02;99352.64;99818;1294;137096;-68
2022/12/13 07:36:50;;;;;;;13.70;9.50;;;;;;;-2.45;79.93;99353.98;99906;1287;107779;-68
2022/12/13 07:39:13;;;;;;;13.70;9.30;;;;;;;-2.46;80.17;99363.69;99771;1291;138149;-68
2022/12/13 07:41:37;;;;;;;12.30;8.80;;;;;;;-2.46;80.04;99365.90;99883;1293;108963;-68
2022/12/13 07:44:02;;;;;;;14.90;9.60;;;;;;;-2.47;79.89;99367.77;99885;1291;97850;-68
2022/12/13 07:46:26;;;;;;;14.50;9.30;;;;;;;-2.48;80.06;99373.71;99991;1294;137725;-68
2022/12/13 07:48:56;;;;;;;16.60;10.10;;;;;;;-2.47;79.71;99377.48;99880;1294;105925;-68
2022/12/13 07:51:26;;;;;;;12.40;8.70;;;;;;;-2.43;79.92;99372.55;99098;1297;1003760;-68
2022/12/13 07:53:49;;;;;;;13.20;8.90;;;;;;;-2.40;79.78;99379.88;99951;1292;106672;-68
2022/12/13 07:56:13;;;;;;;14.80;9.20;;;;;;;-2.36;79.86;99380.58;99812;1292;137984;-69
2022/12/13 07:58:37;;;;;;;15.20;9.00;;;;;;;-2.30;79.88;99379.77;99899;1300;111083;-69
2022/12/13 08:01:02;;;;;;;14.20;9.00;;;;;;;-2.28;79.72;99385.05;99881;1291;106747;-69
2022/12/13 08:03:28;;;;;;;12.80;9.50;;;;;;;-2.29;79.55;99386.42;99811;1296;137842;-69
2022/12/13 08:06:00;;;;;;;13.80;9.40;;;;;;;-2.29;79.56;99388.46;99889;1294;107190;-69
2022/12/13 08:08:25;;;;;;;13.80;9.50;;;;;;;-2.31;79.49;99392.20;101255;1299;138652;-69
2022/12/13 08:10:54;;;;;;;14.20;10.00;;;;;;;-2.34;79.52;99396.95;101430;1299;110742;-69
2022/12/13 08:13:24;;;;;;;14.80;10.20;;;;;;;-2.34;79.79;99400.17;99970;1295;107546;-69
2022/12/13 08:15:47;;;;;;;17.00;10.80;;;;;;;-2.38;79.55;99401.67;99801;1293;137911;-69
2022/12/13 08:18:12;;;;;;;17.30;11.70;;;;;;;-2.41;79.70;99400.81;99874;1293;107441;-69
2022/12/13 08:20:36;;;;;;;18.50;11.70;;;;;;;-2.42;79.58;99401.65;99796;1291;138938;-69
2022/12/13 08:23:00;;;;;;;17.40;10.30;;;;;;;-2.42;79.97;99411.20;99866;1292;111061;-69
2022/12/13 08:25:26;;;;;;;13.60;9.90;;;;;;;-2.38;79.77;99406.95;99768;1297;107298;-68
2022/12/13 08:27:50;;;;;;;13.90;10.20;;;;;;;-2.36;79.81;99412.92;99798;1294;138406;-69
2022/12/13 08:30:14;;;;;;;14.10;9.90;;;;;;;-2.32;79.88;99408.03;99804;1299;108985;-69
2022/12/13 08:32:48;;;;;;;14.00;10.30;;;;;;;-2.27;79.78;99410.27;99828;1288;137617;-69
2022/12/13 08:35:11;;;;;;;;;;;;;;;-2.21;79.90;99409.27;99924;1294;111215;-68
2022/12/13 08:37:35;;;;;;;16.80;11.00;;;;;;;-2.16;79.70;99411.52;99824;1291;108716;-69
2022/12/13 08:39:59;;;;;;;18.70;11.90;;;;;;;-2.14;79.36;99411.04;99853;1292;139219;-69
2022/12/13 08:42:24;;;;;;;20.80;14.30;;;;;;;-2.14;79.19;99414.61;99856;1292;108639;-70
2022/12/13 08:44:49;;;;;;;23.00;14.80;;;;;;;-2.16;79.14;99413.40;99815;1292;137877;-69
2022/12/13 08:47:14;;;;;;;20.50;14.30;;;;;;;-2.20;79.18;99423.23;99914;1293;111207;-68
2022/12/13 08:49:48;;;;;;;16.70;10.60;;;;;;;-2.24;78.98;99424.41;99827;1294;107602;-69
2022/12/13 08:52:11;;;;;;;14.00;10.10;;;;;;;-2.28;78.92;99428.14;99828;1294;138355;-69
2022/12/13 08:54:34;;;;;;;15.20;10.80;;;;;;;-2.29;78.93;99431.37;99823;1293;105925;-68
2022/12/13 08:56:58;;;;;;;15.60;10.70;;;;;;;-2.27;79.19;99430.52;99997;1288;140066;-69
2022/12/13 08:59:24;;;;;;;14.40;10.60;;;;;;;-2.24;79.18;99430.20;99966;1295;111031;-69
2022/12/13 09:01:47;;;;;;;14.70;10.00;;;;;;;-2.21;78.88;99433.46;99948;1294;108174;-68
2022/12/13 09:04:17;;;;;;;14.10;10.20;;;;;;;-2.16;78.81;99440.98;99853;1301;139232;-69
2022/12/13 09:06:54;;;;;;;13.50;9.90;;;;;;;-2.10;78.86;99439.66;99910;1293;107003;-68
2022/12/13 09:09:19;;;;;;;17.80;10.60;;;;;;;-2.04;78.71;99438.33;99844;1290;137388;-68
2022/12/13 09:11:42;;;;;;;14.80;10.80;;;;;;;-1.99;78.60;99438.34;99983;1293;112313;-68
2022/12/13 09:14:06;;;;;;;14.60;10.00;;;;;;;-1.99;78.27;99441.92;99955;1287;106921;-68
2022/12/13 09:16:37;;;;;;;16.80;11.10;;;;;;;-1.99;78.10;99444.64;100019;1297;98317;-68
2022/12/13 09:19:01;;;;;;;12.50;9.20;;;;;;;-2.01;77.74;99450.77;99945;1290;106960;-68
2022/12/13 09:21:45;;;;;;;13.70;10.10;;;;;;;-2.02;77.72;99447.36;99859;1292;139138;-68
2022/12/13 09:24:10;;;;;;;11.10;7.60;;;;;;;-2.03;77.81;99448.71;99941;1287;110384;-68
2022/12/13 09:26:47;;;;;;;14.90;10.40;;;;;;;-2.04;77.68;99451.60;99825;1290;137647;-68
2022/12/13 09:29:20;;;;;;;14.90;9.70;;;;;;;-2.06;77.57;99453.13;99982;1294;99423;-68
2022/12/13 09:31:43;;;;;;;15.80;10.40;;;;;;;-2.07;77.60;99453.64;99889;1281;107710;-68
2022/12/13 09:34:15;;;;;;;16.10;10.40;;;;;;;-2.07;77.63;99450.75;99938;1293;139489;-69
2022/12/13 09:36:39;;;;;;;13.30;9.80;;;;;;;-2.07;77.62;99449.90;100651;1299;110679;-68
2022/12/13 09:39:04;;;;;;;13.50;9.90;;;;;;;-2.06;77.67;99456.03;99911;1294;107935;-68
2022/12/13 09:41:31;;;;;;;13.70;9.90;;;;;;;-2.05;77.76;99453.82;99851;1293;139433;-69
2022/12/13 09:44:00;;;;;;;13.20;9.60;;;;;;;-2.02;77.69;99458.09;99268;1285;1003206;-69
2022/12/13 09:46:31;;;;;;;13.70;10.20;;;;;;;-2.04;77.49;99456.21;99701;1290;140611;-69
2022/12/13 09:49:15;;;;;;;16.90;10.90;;;;;;;-2.05;77.56;99458.08;99973;1294;110083;-69
2022/12/13 09:51:49;;;;;;;14.70;10.30;;;;;;;-2.02;77.73;99459.45;99890;1290;106805;-69
2022/12/13 09:54:33;;;;;;;16.00;10.80;;;;;;;-1.99;77.36;99458.61;99935;1292;97851;-69
2022/12/13 09:56:57;;;;;;;15.60;11.10;;;;;;;-1.98;77.61;99456.59;99901;1294;106595;-69
2022/12/13 09:59:26;;;;;;;16.80;11.30;;;;;;;-1.99;77.29;99460.15;99850;1292;137642;-69
2022/12/13 10:01:50;;;;;;;15.30;11.00;;;;;;;-2.01;77.32;99464.05;100008;1294;111230;-69
2022/12/13 10:04:18;;;;;;;15.10;10.80;;;;;;;-2.02;77.30;99467.29;99823;1294;163730;-69
2022/12/13 10:06:41;;;;;;;15.00;10.40;;;;;;;-2.06;77.34;99466.41;100036;1292;98592;-69
2022/12/13 10:09:10;;;;;;;16.90;11.00;;;;;;;-2.09;77.29;99463.67;99935;1292;107466;-69
2022/12/13 10:11:34;;;;;;;14.60;10.00;;;;;;;-2.09;77.51;99466.92;100259;1298;139037;-69
2022/12/13 10:14:01;;;;;;;12.70;9.90;;;;;;;-2.08;77.57;99462.83;99938;1292;110249;-69
2022/12/13 10:16:29;;;;;;;14.10;9.40;;;;;;;-2.07;77.85;99459.77;99774;1290;138352;-69
2022/12/13 10:19:01;;;;;;;14.60;10.20;;;;;;;-2.04;77.91;99464.89;99930;1297;97841;-69
2022/12/13 10:21:31;;;;;;;13.10;9.60;;;;;;;-2.03;77.91;99464.21;99936;1292;108080;-68
2022/12/13 10:23:56;;;;;;;14.40;9.90;;;;;;;-2.04;77.97;99464.90;99837;1298;138810;-69
2022/12/13 10:26:40;;;;;;;16.30;9.90;;;;;;;-2.03;78.10;99467.45;99227;1294;1002826;-69
2022/12/13 10:29:06;;;;;;;15.90;10.80;;;;;;;-2.00;78.39;99468.14;99785;1298;138523;-69
2022/12/13 10:31:37;;;;;;;15.60;10.70;;;;;;;-2.01;78.21;99463.89;99970;1293;97946;-69
2022/12/13 10:34:01;;;;;;;16.70;11.00;;;;;;;-2.05;78.25;99467.61;99854;1291;138540;-69
2022/12/13 10:36:33;;;;;;;17.90;11.90;;;;;;;-2.11;78.18;99469.47;99928;1301;97831;-69
2022/12/13 10:38:58;;;;;;;18.20;12.10;;;;;;;-2.15;78.34;99473.02;99945;1291;111563;-68
2022/12/13 10:41:31;;;;;;;18.10;11.50;;;;;;;-2.17;78.73;99475.88;99892;1291;139000;-68
2022/12/13 10:44:19;;;;;;;20.70;11.80;;;;;;;-2.18;78.72;99475.53;99958;1294;99456;-68
2022/12/13 10:46:49;;;;;;;16.00;11.10;;;;;;;-2.22;78.62;99476.36;99839;1291;140022;-69
2022/12/13 10:49:18;;;;;;;15.60;10.30;;;;;;;-2.20;78.83;99474.16;100569;1291;97822;-69
2022/12/13 10:51:42;;;;;;;13.90;10.40;;;;;;;-2.18;79.19;99469.06;100007;1301;110644;-69
2022/12/13 10:54:15;;;;;;;16.00;10.80;;;;;;;-2.16;78.85;99462.61;99840;1292;138502;-69
2022/12/13 10:56:45;;;;;;;16.90;11.10;;;;;;;-2.16;78.87;99465.84;100058;1297;98076;-69
2022/12/13 10:59:11;;;;;;;15.50;10.70;;;;;;;-2.15;79.10;99461.27;99823;1292;138321;-69
2022/12/13 11:01:40;;;;;;;15.30;10.20;;;;;;;-2.15;78.82;99459.05;99912;1297;97898;-69
2022/12/13 11:04:21;;;;;;;17.80;11.80;;;;;;;-2.11;78.99;99459.42;99837;1294;139922;-68
2022/12/13 11:06:51;;;;;;;17.50;10.60;;;;;;;-2.04;79.14;99459.10;100062;1299;108019;-68
2022/12/13 11:09:16;;;;;;;16.50;10.90;;;;;;;-1.98;79.15;99457.77;99942;1294;97821;-69
2022/12/13 11:11:51;;;;;;;18.60;11.70;;;;;;;-1.95;78.98;99460.02;99912;1292;138273;-68
2022/12/13 11:14:25;;;;;;;18.60;11.10;;;;;;;-1.90;78.89;99457.14;100061;1298;97818;-68
2022/12/13 11:16:58;;;;;;;15.50;11.10;;;;;;;-1.88;78.81;99460.22;99932;1297;137951;-68
2022/12/13 11:19:29;;;;;;;17.60;11.70;;;;;;;-1.87;78.85;99456.64;99996;1300;107474;-68